createdAt,value
2022-09-22T00:01:32.137Z,10.30
2022-09-22T00:04:03.586Z,10.30
2022-09-22T00:06:44.055Z,10.20
2022-09-22T00:09:15.322Z,10.20
2022-09-22T00:11:46.233Z,10.20
2022-09-22T00:14:24.276Z,10.10
2022-09-22T00:16:58.054Z,10.10
2022-09-22T00:19:36.087Z,10.00
2022-09-22T00:22:05.247Z,10.00
2022-09-22T00:24:33.514Z,10.00
2022-09-22T00:27:00.678Z,9.90
2022-09-22T00:29:29.615Z,9.90
2022-09-22T00:31:57.677Z,9.90
2022-09-22T00:34:27.479Z,9.90
2022-09-22T00:36:55.693Z,9.80
2022-09-22T00:39:23.182Z,9.80
2022-09-22T00:41:52.726Z,9.80
2022-09-22T00:44:41.022Z,9.70
2022-09-22T00:47:17.081Z,9.70
2022-09-22T00:50:00.366Z,9.60
2022-09-22T00:53:03.430Z,9.60
2022-09-22T00:55:38.648Z,9.60
2022-09-22T00:58:12.268Z,9.50
2022-09-22T01:00:39.551Z,9.50
2022-09-22T01:03:14.054Z,9.50
2022-09-22T01:05:45.126Z,9.40
2022-09-22T01:08:13.818Z,9.40
2022-09-22T01:10:40.864Z,9.40
2022-09-22T01:13:58.104Z,9.30
2022-09-22T01:16:37.086Z,9.30
2022-09-22T01:19:47.906Z,9.30
2022-09-22T01:22:43.252Z,9.20
2022-09-22T01:25:44.914Z,9.20
2022-09-22T01:28:45.950Z,9.10
2022-09-22T01:31:46.149Z,9.10
2022-09-22T01:34:35.551Z,9.10
2022-09-22T01:37:23.931Z,9.10
2022-09-22T01:40:17.826Z,9.00
2022-09-22T01:42:58.870Z,9.00
2022-09-22T01:45:30.834Z,9.00
2022-09-22T01:48:14.779Z,9.00
2022-09-22T01:51:18.154Z,9.00
2022-09-22T01:53:54.137Z,9.00
2022-09-22T01:56:24.192Z,9.00
2022-09-22T01:58:59.257Z,8.90
2022-09-22T02:01:46.048Z,8.90
2022-09-22T02:04:34.398Z,8.90
2022-09-22T02:07:15.691Z,8.90
2022-09-22T02:09:44.524Z,8.90
2022-09-22T02:12:11.378Z,8.80
2022-09-22T02:14:38.421Z,8.80
2022-09-22T02:17:07.791Z,8.80
2022-09-22T02:19:38.530Z,8.80
2022-09-22T02:22:07.663Z,8.80
2022-09-22T02:24:44.773Z,8.80
2022-09-22T02:27:26.967Z,8.70
2022-09-22T02:30:08.670Z,8.70
2022-09-22T02:32:41.999Z,8.70
2022-09-22T02:35:10.117Z,8.70
2022-09-22T02:37:50.817Z,8.70
2022-09-22T02:40:33.167Z,8.70
2022-09-22T02:43:23.387Z,8.60
2022-09-22T02:46:01.832Z,8.60
2022-09-22T02:48:38.639Z,8.60
2022-09-22T02:51:07.134Z,8.60
2022-09-22T02:53:36.430Z,8.60
2022-09-22T02:56:04.539Z,8.60
2022-09-22T02:58:31.335Z,8.50
2022-09-22T03:00:58.454Z,8.50
2022-09-22T03:03:25.268Z,8.50
2022-09-22T03:05:52.110Z,8.50
2022-09-22T03:08:19.028Z,8.50
2022-09-22T03:10:46.091Z,8.50
2022-09-22T03:13:17.341Z,8.50
2022-09-22T03:15:46.388Z,8.40
2022-09-22T03:18:13.957Z,8.40
2022-09-22T03:20:40.883Z,8.40
2022-09-22T03:23:08.316Z,8.40
2022-09-22T03:25:35.302Z,8.40
2022-09-22T03:28:02.916Z,8.40
2022-09-22T03:30:30.441Z,8.40
2022-09-22T03:32:57.505Z,8.30
2022-09-22T03:35:24.577Z,8.30
2022-09-22T03:37:51.400Z,8.30
2022-09-22T03:40:18.405Z,8.30
2022-09-22T03:42:45.309Z,8.30
2022-09-22T03:45:12.726Z,8.30
2022-09-22T03:47:39.692Z,8.30
2022-09-22T03:50:08.182Z,8.30
2022-09-22T03:52:35.121Z,8.30
2022-09-22T03:55:02.985Z,8.20
2022-09-22T03:57:30.163Z,8.20
2022-09-22T03:59:57.218Z,8.20
2022-09-22T04:02:24.138Z,8.20
2022-09-22T04:04:51.094Z,8.20
2022-09-22T04:07:17.968Z,8.20
2022-09-22T04:09:44.977Z,8.20
2022-09-22T04:12:11.916Z,8.10
2022-09-22T04:14:38.849Z,8.10
2022-09-22T04:17:05.925Z,8.10
2022-09-22T04:19:36.090Z,8.10
2022-09-22T04:22:04.082Z,8.10
2022-09-22T04:24:31.213Z,8.10
2022-09-22T04:29:45.291Z,8.00
2022-09-22T04:32:12.499Z,8.00
2022-09-22T04:34:39.529Z,8.00
2022-09-22T04:37:06.379Z,8.00
2022-09-22T04:39:33.248Z,8.00
2022-09-22T04:42:00.170Z,8.00
2022-09-22T04:44:27.025Z,8.00
2022-09-22T04:46:55.789Z,7.90
2022-09-22T04:49:23.357Z,7.90
2022-09-22T04:51:50.139Z,7.90
2022-09-22T04:54:17.036Z,7.90
2022-09-22T04:56:44.503Z,7.90
2022-09-22T04:59:11.838Z,7.90
2022-09-22T05:01:38.872Z,7.90
2022-09-22T05:04:05.894Z,7.80
2022-09-22T05:06:32.909Z,7.80
2022-09-22T05:08:59.876Z,7.80
2022-09-22T05:11:26.841Z,7.80
2022-09-22T05:13:53.667Z,7.80
2022-09-22T05:16:20.543Z,7.80
2022-09-22T05:18:50.072Z,7.70
2022-09-22T05:21:18.766Z,7.70
2022-09-22T05:23:46.542Z,7.70
2022-09-22T05:26:13.621Z,7.60
2022-09-22T05:28:41.723Z,7.70
2022-09-22T05:31:09.248Z,7.60
2022-09-22T05:33:36.047Z,7.60
2022-09-22T05:36:03.172Z,7.60
2022-09-22T05:38:30.025Z,7.50
2022-09-22T05:40:56.857Z,7.60
2022-09-22T05:43:23.708Z,7.60
2022-09-22T05:45:50.688Z,7.60
2022-09-22T05:48:17.723Z,7.50
2022-09-22T05:50:45.371Z,7.50
2022-09-22T05:53:13.560Z,7.60
2022-09-22T05:55:41.614Z,7.50
2022-09-22T05:58:13.850Z,7.60
2022-09-22T06:00:44.595Z,7.60
2022-09-22T06:03:11.521Z,7.60
2022-09-22T06:05:39.634Z,7.60
2022-09-22T06:08:07.718Z,7.60
2022-09-22T06:10:37.711Z,7.60
2022-09-22T06:13:07.838Z,7.60
2022-09-22T06:15:36.189Z,7.60
2022-09-22T06:18:07.445Z,7.60
2022-09-22T06:20:35.854Z,7.60
2022-09-22T06:23:02.967Z,7.60
2022-09-22T06:25:30.544Z,7.70
2022-09-22T06:28:14.056Z,7.70
2022-09-22T06:30:42.107Z,7.80
2022-09-22T06:33:11.045Z,7.80
2022-09-22T06:35:41.336Z,7.90
2022-09-22T06:38:14.978Z,7.90
2022-09-22T06:40:43.377Z,8.00
2022-09-22T06:43:20.625Z,8.00
2022-09-22T06:45:47.534Z,8.10
2022-09-22T06:48:14.583Z,8.20
2022-09-22T06:50:51.635Z,8.20
2022-09-22T06:53:20.252Z,8.30
2022-09-22T06:55:49.862Z,8.40
2022-09-22T06:58:17.871Z,8.40
2022-09-22T07:00:44.838Z,8.50
2022-09-22T07:03:24.272Z,8.60
2022-09-22T07:06:00.880Z,8.70
2022-09-22T07:08:31.326Z,8.80
2022-09-22T07:11:02.235Z,8.80
2022-09-22T07:13:31.458Z,8.90
2022-09-22T07:16:04.625Z,9.00
2022-09-22T07:18:31.854Z,9.10
2022-09-22T07:21:21.087Z,9.20
2022-09-22T07:23:49.964Z,9.30
2022-09-22T07:26:21.785Z,9.40
2022-09-22T07:28:53.075Z,9.50
2022-09-22T07:31:22.921Z,9.70
2022-09-22T07:33:54.630Z,9.80
2022-09-22T07:36:26.052Z,9.90
2022-09-22T07:38:58.197Z,10.00
2022-09-22T07:41:28.669Z,10.20
2022-09-22T07:44:20.776Z,10.30
2022-09-22T07:46:48.120Z,10.40
2022-09-22T07:49:15.153Z,10.60
2022-09-22T07:51:42.890Z,10.70
2022-09-22T07:54:10.028Z,10.90
2022-09-22T07:56:43.336Z,11.00
2022-09-22T07:59:14.080Z,11.10
2022-09-22T08:01:49.161Z,11.30
2022-09-22T08:04:22.600Z,11.40
2022-09-22T08:06:55.189Z,11.60
2022-09-22T08:09:24.764Z,11.70
2022-09-22T08:11:53.041Z,11.90
2022-09-22T08:14:22.946Z,12.00
2022-09-22T08:16:51.514Z,12.20
2022-09-22T08:19:19.962Z,12.30
2022-09-22T08:21:50.999Z,12.50
2022-09-22T08:24:23.126Z,12.60
2022-09-22T08:26:53.318Z,12.80
2022-09-22T08:29:21.727Z,13.00
2022-09-22T08:31:50.301Z,13.10
2022-09-22T08:34:17.989Z,13.30
2022-09-22T08:36:46.469Z,13.50
2022-09-22T08:39:15.029Z,13.70
2022-09-22T08:42:09.527Z,13.80
2022-09-22T08:45:04.119Z,14.00
2022-09-22T08:48:00.165Z,14.20
2022-09-22T08:50:58.131Z,14.40
2022-09-22T08:53:32.182Z,14.60
2022-09-22T08:56:14.797Z,14.80
2022-09-22T08:58:54.508Z,15.00
2022-09-22T09:01:52.228Z,15.10
2022-09-22T09:05:01.295Z,15.30
2022-09-22T09:08:30.743Z,15.60
2022-09-22T09:11:48.426Z,15.70
2022-09-22T09:14:35.272Z,16.00
2022-09-22T09:17:30.565Z,16.10
2022-09-22T09:20:19.381Z,16.30
2022-09-22T09:22:57.169Z,16.50
2022-09-22T09:25:40.758Z,16.70
2022-09-22T09:28:27.835Z,16.80
2022-09-22T09:31:08.734Z,17.00
2022-09-22T09:34:02.796Z,17.20
2022-09-22T09:36:45.413Z,17.30
2022-09-22T09:39:26.016Z,17.50
2022-09-22T09:41:55.174Z,17.60
2022-09-22T09:44:38.939Z,17.70
2022-09-22T09:47:43.277Z,17.90
2022-09-22T09:50:11.408Z,18.00
2022-09-22T09:52:39.041Z,18.20
2022-09-22T09:55:27.219Z,18.20
2022-09-22T09:58:10.878Z,18.40
2022-09-22T10:01:00.537Z,18.50
2022-09-22T10:03:33.212Z,18.60
2022-09-22T10:06:06.383Z,18.70
2022-09-22T10:08:43.979Z,18.80
2022-09-22T10:11:14.815Z,18.90
2022-09-22T10:13:44.021Z,19.10
2022-09-22T10:16:26.219Z,19.10
2022-09-22T10:19:34.553Z,19.20
2022-09-22T10:22:25.485Z,19.30
2022-09-22T10:24:59.866Z,19.50
2022-09-22T10:27:30.652Z,19.60
2022-09-22T10:30:24.213Z,19.60
2022-09-22T10:33:26.513Z,19.70
2022-09-22T10:36:12.171Z,19.80
2022-09-22T10:38:44.860Z,19.90
2022-09-22T10:41:34.007Z,20.00
2022-09-22T10:44:48.631Z,20.10
2022-09-22T10:48:12.532Z,20.20
2022-09-22T10:51:15.845Z,20.30
2022-09-22T10:54:12.979Z,20.40
2022-09-22T10:57:09.243Z,20.50
2022-09-22T11:00:03.382Z,20.60
2022-09-22T11:03:22.709Z,20.70
2022-09-22T11:06:54.238Z,20.70
2022-09-22T11:10:16.674Z,20.80
2022-09-22T11:13:35.357Z,20.80
2022-09-22T11:16:50.022Z,20.80
2022-09-22T11:19:38.909Z,20.90
2022-09-22T11:22:58.368Z,20.90
2022-09-22T11:25:46.758Z,21.00
2022-09-22T11:29:08.048Z,21.00
2022-09-22T11:32:08.222Z,21.10
2022-09-22T11:34:52.605Z,21.20
2022-09-22T11:37:40.668Z,21.30
2022-09-22T11:40:36.500Z,21.30
2022-09-22T11:43:40.203Z,21.30
2022-09-22T11:46:48.170Z,21.30
2022-09-22T11:50:17.245Z,21.20
2022-09-22T11:53:14.330Z,21.20
2022-09-22T11:56:28.414Z,21.20
2022-09-22T11:59:03.291Z,21.20
2022-09-22T12:01:37.865Z,21.20
2022-09-22T12:04:25.842Z,21.20
2022-09-22T12:06:57.034Z,21.20
2022-09-22T12:09:37.194Z,21.20
2022-09-22T12:12:07.272Z,21.20
2022-09-22T12:14:36.072Z,21.30
2022-09-22T12:17:23.651Z,21.40
2022-09-22T12:20:01.519Z,21.50
2022-09-22T12:22:57.595Z,21.50
2022-09-22T12:26:08.314Z,21.60
2022-09-22T12:28:49.566Z,21.70
2022-09-22T12:31:18.822Z,21.80
2022-09-22T12:33:54.085Z,21.90
2022-09-22T12:36:35.504Z,21.90
2022-09-22T12:39:22.928Z,22.00
2022-09-22T12:42:05.704Z,22.00
2022-09-22T12:44:45.528Z,22.10
2022-09-22T12:47:30.223Z,22.20
2022-09-22T12:50:00.034Z,22.30
2022-09-22T12:52:42.269Z,22.30
2022-09-22T12:55:30.230Z,22.30
2022-09-22T12:58:00.141Z,22.30
2022-09-22T13:00:41.495Z,22.30
2022-09-22T13:03:26.757Z,22.30
2022-09-22T13:05:58.599Z,22.30
2022-09-22T13:08:31.409Z,22.30
2022-09-22T13:11:09.518Z,22.20
2022-09-22T13:13:45.404Z,22.20
2022-09-22T13:16:15.293Z,22.20
2022-09-22T13:18:54.143Z,22.20
2022-09-22T13:21:30.343Z,22.10
2022-09-22T13:24:01.229Z,22.10
2022-09-22T13:26:29.823Z,22.10
2022-09-22T13:29:20.858Z,22.00
2022-09-22T13:31:52.859Z,22.00
2022-09-22T13:34:24.287Z,21.90
2022-09-22T13:36:59.819Z,21.90
2022-09-22T13:39:32.137Z,21.90
2022-09-22T13:42:12.293Z,21.90
2022-09-22T13:44:44.153Z,21.90
2022-09-22T13:47:20.086Z,21.90
2022-09-22T13:49:54.920Z,21.90
2022-09-22T13:52:30.112Z,21.80
2022-09-22T13:55:21.845Z,21.80
2022-09-22T13:57:50.554Z,21.90
2022-09-22T14:01:12.985Z,21.80
2022-09-22T14:03:42.979Z,21.90
2022-09-22T14:06:16.782Z,21.90
2022-09-22T14:08:46.891Z,21.80
2022-09-22T14:11:22.636Z,21.80
2022-09-22T14:13:58.450Z,21.80
2022-09-22T14:16:57.291Z,21.70
2022-09-22T14:19:56.161Z,21.60
2022-09-22T14:22:27.579Z,21.70
2022-09-22T14:24:58.044Z,21.70
2022-09-22T14:27:55.405Z,21.70
2022-09-22T14:30:28.943Z,21.80
2022-09-22T14:33:05.342Z,21.80
2022-09-22T14:35:37.174Z,21.80
2022-09-22T14:38:16.133Z,21.80
2022-09-22T14:41:01.603Z,21.80
2022-09-22T14:43:42.017Z,21.80
2022-09-22T14:46:42.478Z,21.80
2022-09-22T14:49:36.859Z,21.80
2022-09-22T14:52:34.061Z,21.70
2022-09-22T14:55:16.929Z,21.70
2022-09-22T14:57:49.501Z,21.70
2022-09-22T15:00:37.260Z,21.60
2022-09-22T15:03:23.589Z,21.50
2022-09-22T15:05:50.808Z,21.50
2022-09-22T15:08:27.617Z,21.40
2022-09-22T15:10:59.322Z,21.40
2022-09-22T15:13:34.996Z,21.40
2022-09-22T15:16:02.839Z,21.40
2022-09-22T15:18:30.964Z,21.40
2022-09-22T15:21:12.229Z,21.30
2022-09-22T15:23:44.985Z,21.40
2022-09-22T15:26:26.249Z,21.40
2022-09-22T15:28:55.668Z,21.40
2022-09-22T15:31:26.629Z,21.40
2022-09-22T15:34:01.372Z,21.30
2022-09-22T15:36:32.986Z,21.40
2022-09-22T15:39:22.942Z,21.30
2022-09-22T15:41:53.643Z,21.40
2022-09-22T15:44:20.650Z,21.40
2022-09-22T15:46:54.557Z,21.30
2022-09-22T15:49:26.105Z,21.30
2022-09-22T15:51:54.602Z,21.30
2022-09-22T15:54:24.625Z,21.30
2022-09-22T15:56:54.677Z,21.30
2022-09-22T15:59:28.176Z,21.20
2022-09-22T16:01:56.919Z,21.20
2022-09-22T16:04:24.059Z,21.20
2022-09-22T16:07:02.606Z,21.10
2022-09-22T16:09:30.506Z,21.10
2022-09-22T16:11:57.451Z,21.10
2022-09-22T16:14:24.448Z,21.10
2022-09-22T16:16:52.154Z,21.10
2022-09-22T16:19:19.727Z,21.10
2022-09-22T16:21:54.063Z,21.00
2022-09-22T16:24:22.566Z,21.00
2022-09-22T16:26:51.637Z,21.00
2022-09-22T16:29:18.564Z,20.90
2022-09-22T16:31:45.521Z,20.90
2022-09-22T16:34:12.836Z,20.90
2022-09-22T16:36:41.611Z,20.80
2022-09-22T16:39:08.792Z,20.80
2022-09-22T16:41:36.948Z,20.70
2022-09-22T16:44:04.903Z,20.70
2022-09-22T16:46:35.810Z,20.60
2022-09-22T16:49:07.440Z,20.60
2022-09-22T16:51:40.855Z,20.50
2022-09-22T16:54:13.130Z,20.40
2022-09-22T16:56:43.397Z,20.40
2022-09-22T16:59:19.974Z,20.30
2022-09-22T17:01:47.781Z,20.20
2022-09-22T17:04:18.995Z,20.10
2022-09-22T17:06:47.584Z,20.00
2022-09-22T17:09:14.908Z,19.90
2022-09-22T17:11:45.376Z,19.70
2022-09-22T17:14:18.495Z,19.60
2022-09-22T17:16:51.700Z,19.50
2022-09-22T17:19:26.505Z,19.40
2022-09-22T17:21:55.867Z,19.20
2022-09-22T17:24:25.175Z,19.10
2022-09-22T17:26:58.080Z,19.00
2022-09-22T17:29:28.504Z,18.80
2022-09-22T17:32:02.765Z,18.70
2022-09-22T17:34:35.175Z,18.60
2022-09-22T17:37:03.661Z,18.50
2022-09-22T17:39:32.074Z,18.40
2022-09-22T17:41:59.633Z,18.30
2022-09-22T17:44:28.476Z,18.20
2022-09-22T17:47:14.410Z,18.10
2022-09-22T17:50:00.313Z,18.00
2022-09-22T17:52:33.476Z,17.90
2022-09-22T17:55:20.711Z,17.70
2022-09-22T17:57:48.272Z,17.70
2022-09-22T18:00:21.063Z,17.60
2022-09-22T18:02:50.828Z,17.50
2022-09-22T18:05:21.970Z,17.40
2022-09-22T18:07:53.565Z,17.30
2022-09-22T18:10:20.808Z,17.20
2022-09-22T18:12:47.672Z,17.10
2022-09-22T18:15:17.152Z,17.10
2022-09-22T18:17:44.705Z,17.00
2022-09-22T18:20:16.343Z,16.90
2022-09-22T18:22:50.025Z,16.80
2022-09-22T18:25:25.352Z,16.70
2022-09-22T18:27:53.487Z,16.60
2022-09-22T18:30:20.787Z,16.60
2022-09-22T18:32:49.257Z,16.50
2022-09-22T18:35:16.631Z,16.40
2022-09-22T18:37:43.895Z,16.30
2022-09-22T18:40:12.261Z,16.20
2022-09-22T18:42:41.512Z,16.20
2022-09-22T18:45:10.899Z,16.10
2022-09-22T18:47:40.702Z,16.00
2022-09-22T18:50:08.488Z,15.90
2022-09-22T18:52:36.557Z,15.80
2022-09-22T18:55:04.767Z,15.80
2022-09-22T18:57:31.615Z,15.70
2022-09-22T19:00:01.086Z,15.60
2022-09-22T19:02:28.484Z,15.60
2022-09-22T19:04:55.383Z,15.50
2022-09-22T19:07:43.519Z,15.40
2022-09-22T19:10:15.401Z,15.30
2022-09-22T19:12:42.715Z,15.20
2022-09-22T19:15:18.450Z,15.20
2022-09-22T19:17:49.356Z,15.10
2022-09-22T19:20:23.679Z,15.00
2022-09-22T19:22:52.170Z,15.00
2022-09-22T19:25:21.249Z,14.90
2022-09-22T19:27:48.342Z,14.80
2022-09-22T19:30:17.659Z,14.80
2022-09-22T19:32:46.456Z,14.70
2022-09-22T19:35:13.937Z,14.70
2022-09-22T19:37:41.289Z,14.60
2022-09-22T19:40:13.100Z,14.50
2022-09-22T19:42:40.599Z,14.40
2022-09-22T19:45:09.360Z,14.40
2022-09-22T19:47:39.713Z,14.30
2022-09-22T19:50:08.303Z,14.30
2022-09-22T19:52:36.251Z,14.20
2022-09-22T19:55:04.711Z,14.10
2022-09-22T19:57:38.318Z,14.10
2022-09-22T20:00:06.006Z,14.00
2022-09-22T20:02:38.623Z,13.90
2022-09-22T20:05:17.737Z,13.90
2022-09-22T20:07:44.651Z,13.90
2022-09-22T20:10:13.146Z,13.80
2022-09-22T20:12:40.362Z,13.70
2022-09-22T20:15:08.056Z,13.70
2022-09-22T20:17:34.998Z,13.60
2022-09-22T20:20:01.955Z,13.60
2022-09-22T20:22:30.446Z,13.50
2022-09-22T20:25:01.308Z,13.50
2022-09-22T20:27:35.627Z,13.40
2022-09-22T20:30:03.881Z,13.40
2022-09-22T20:32:32.046Z,13.30
2022-09-22T20:34:58.930Z,13.30
2022-09-22T20:37:25.985Z,13.20
2022-09-22T20:39:53.001Z,13.20
2022-09-22T20:42:19.910Z,13.10
2022-09-22T20:44:47.158Z,13.10
2022-09-22T20:47:17.450Z,13.00
2022-09-22T20:49:48.115Z,13.00
2022-09-22T20:52:19.764Z,12.90
2022-09-22T20:54:46.987Z,12.90
2022-09-22T20:57:14.221Z,12.90
2022-09-22T20:59:43.853Z,12.70
2022-09-22T21:02:13.922Z,12.80
2022-09-22T21:04:41.685Z,12.70
2022-09-22T21:07:09.209Z,12.70
2022-09-22T21:09:54.720Z,12.60
2022-09-22T21:12:23.600Z,12.60
2022-09-22T21:14:53.063Z,12.50
2022-09-22T21:17:20.764Z,12.50
2022-09-22T21:19:47.729Z,12.40
2022-09-22T21:22:15.593Z,12.40
2022-09-22T21:24:45.633Z,12.30
2022-09-22T21:27:13.476Z,12.30
2022-09-22T21:29:41.052Z,12.30
2022-09-22T21:32:09.443Z,12.20
2022-09-22T21:34:36.598Z,12.20
2022-09-22T21:37:04.995Z,12.10
2022-09-22T21:39:32.051Z,12.10
2022-09-22T21:41:59.005Z,12.00
2022-09-22T21:44:25.980Z,12.00
2022-09-22T21:46:54.087Z,12.00
2022-09-22T21:49:21.103Z,11.90
2022-09-22T21:51:48.016Z,11.90
2022-09-22T21:54:18.497Z,11.80
2022-09-22T21:56:46.300Z,11.80
2022-09-22T21:59:13.941Z,11.80
2022-09-22T22:01:43.129Z,11.70
2022-09-22T22:04:13.669Z,11.70
2022-09-22T22:06:49.834Z,11.60
2022-09-22T22:09:20.525Z,11.60
2022-09-22T22:11:59.242Z,11.50
2022-09-22T22:14:31.982Z,11.50
2022-09-22T22:16:59.860Z,11.50
2022-09-22T22:19:26.991Z,11.40
2022-09-22T22:21:55.482Z,11.40
2022-09-22T22:24:41.004Z,11.30
2022-09-22T22:27:10.997Z,11.30
2022-09-22T22:29:38.817Z,11.30
2022-09-22T22:32:09.143Z,11.20
2022-09-22T22:34:37.080Z,11.20
2022-09-22T22:37:06.916Z,11.20
2022-09-22T22:39:33.839Z,11.10
2022-09-22T22:42:00.669Z,11.10
2022-09-22T22:44:27.756Z,11.00
2022-09-22T22:46:54.590Z,11.00
2022-09-22T22:49:21.466Z,11.00
2022-09-22T22:51:49.493Z,10.90
2022-09-22T22:54:16.440Z,10.90
2022-09-22T22:56:46.725Z,10.90
2022-09-22T22:59:15.940Z,10.80
2022-09-22T23:01:44.318Z,10.80
2022-09-22T23:04:12.041Z,10.70
2022-09-22T23:06:43.733Z,10.70
2022-09-22T23:09:15.505Z,10.60
2022-09-22T23:11:46.160Z,10.60
2022-09-22T23:14:15.842Z,10.60
2022-09-22T23:16:46.928Z,10.50
2022-09-22T23:19:18.669Z,10.50
2022-09-22T23:21:45.805Z,10.50
2022-09-22T23:24:18.847Z,10.40
2022-09-22T23:26:46.738Z,10.40
2022-09-22T23:29:14.316Z,10.40
2022-09-22T23:31:41.527Z,10.30
2022-09-22T23:34:08.653Z,10.30
2022-09-22T23:36:36.243Z,10.30
2022-09-22T23:39:04.623Z,10.20
2022-09-22T23:41:34.465Z,10.20
2022-09-22T23:44:02.800Z,10.10
2022-09-22T23:46:30.095Z,10.10
2022-09-22T23:48:57.318Z,10.10
2022-09-22T23:51:24.277Z,10.00
2022-09-22T23:53:51.699Z,10.00
2022-09-22T23:56:19.568Z,10.00
2022-09-22T23:58:46.840Z,9.90
